Time;durP1;ratioP1;P1;durP2;ratioP2;P2;SDS_P1;SDS_P2;PMS_P1;PMS_P2;Temp;Humidity;BMP_temperature;BMP_pressure;BME280_temperature;BME280_humidity;BME280_pressure;Samples;Min_cycle;Max_cycle;Signal;HPM_P1;HPM_P2
2021/03/15 00:00:58;;;;;;;0.40;0.40;;;5.10;99.90;;;;;;4429998;32;20409;-73
2021/03/15 00:03:24;;;;;;;0.30;0.30;;;5.10;99.90;;;;;;4429052;32;20065;-72
2021/03/15 00:05:50;;;;;;;0.40;0.40;;;5.10;99.90;;;;;;4428941;32;20062;-72
2021/03/15 00:08:15;;;;;;;0.35;0.35;;;5.00;99.90;;;;;;4428787;32;20115;-73
2021/03/15 00:10:41;;;;;;;0.30;0.30;;;5.00;99.90;;;;;;4429542;32;20066;-72
2021/03/15 00:13:07;;;;;;;1.15;1.02;;;5.00;99.90;;;;;;4429233;32;20082;-72
2021/03/15 00:15:34;;;;;;;0.30;0.30;;;5.00;99.90;;;;;;4428528;32;20069;-72
2021/03/15 00:18:00;;;;;;;0.30;0.30;;;5.00;99.90;;;;;;4428952;32;20502;-72
2021/03/15 00:20:26;;;;;;;0.40;0.40;;;4.90;99.90;;;;;;4428513;32;20083;-72
2021/03/15 00:22:51;;;;;;;0.30;0.30;;;4.90;99.90;;;;;;4428841;32;20082;-72
2021/03/15 00:25:18;;;;;;;0.35;0.35;;;4.90;99.90;;;;;;4428715;32;20077;-72
2021/03/15 00:27:44;;;;;;;0.45;0.45;;;4.90;99.90;;;;;;4427355;32;20081;-72
2021/03/15 00:30:13;;;;;;;1.10;0.85;;;5.00;99.90;;;;;;4428286;32;20385;-72
2021/03/15 00:32:39;;;;;;;0.60;0.60;;;5.00;99.90;;;;;;4429398;32;20124;-72
2021/03/15 00:35:08;;;;;;;0.30;0.30;;;4.90;99.90;;;;;;4428740;32;20089;-72
2021/03/15 00:37:34;;;;;;;0.40;0.40;;;4.90;99.90;;;;;;4428801;32;20068;-72
2021/03/15 00:40:00;;;;;;;0.32;0.32;;;4.80;99.90;;;;;;4428345;32;20074;-72
2021/03/15 00:42:26;;;;;;;0.40;0.40;;;4.80;99.90;;;;;;4428358;32;20454;-72
2021/03/15 00:44:51;;;;;;;0.70;0.70;;;4.80;99.90;;;;;;4428455;32;20054;-72
2021/03/15 00:47:17;;;;;;;0.50;0.50;;;4.90;99.90;;;;;;4428447;32;20065;-73
2021/03/15 00:49:42;;;;;;;0.73;0.73;;;4.80;99.90;;;;;;4428595;32;20082;-73
2021/03/15 00:52:08;;;;;;;0.30;0.30;;;4.80;99.90;;;;;;4428243;32;20125;-73
2021/03/15 00:54:33;;;;;;;0.40;0.40;;;4.80;99.90;;;;;;4429617;32;20073;-73
2021/03/15 00:56:59;;;;;;;0.45;0.45;;;4.80;99.90;;;;;;4427823;32;20471;-73
2021/03/15 00:59:24;;;;;;;0.57;0.57;;;4.70;99.90;;;;;;4427842;32;20541;-72
2021/03/15 01:01:50;;;;;;;0.40;0.40;;;4.80;99.90;;;;;;4428198;32;20065;-73
2021/03/15 01:04:16;;;;;;;0.32;0.32;;;4.80;99.90;;;;;;4429455;32;20061;-73
2021/03/15 01:06:43;;;;;;;0.50;0.50;;;4.70;99.90;;;;;;4428457;32;20383;-73
2021/03/15 01:09:09;;;;;;;0.40;0.40;;;4.70;99.90;;;;;;4428514;32;20088;-73
2021/03/15 01:11:36;;;;;;;0.30;0.30;;;4.70;99.90;;;;;;4429319;32;20073;-73
2021/03/15 01:14:01;;;;;;;0.22;0.22;;;4.70;99.90;;;;;;4427691;32;20058;-73
2021/03/15 01:16:27;;;;;;;0.35;0.35;;;4.70;99.90;;;;;;4428025;32;20097;-73
2021/03/15 01:18:52;;;;;;;0.30;0.30;;;4.70;99.90;;;;;;4428222;32;20108;-73
2021/03/15 01:21:18;;;;;;;1.45;0.70;;;4.70;99.90;;;;;;4428754;32;20169;-73
2021/03/15 01:23:43;;;;;;;0.90;0.60;;;4.80;99.90;;;;;;4429099;32;20061;-73
2021/03/15 01:26:09;;;;;;;0.40;0.40;;;4.70;99.90;;;;;;4428133;32;20069;-73
2021/03/15 01:28:34;;;;;;;0.40;0.40;;;4.70;99.90;;;;;;4428559;32;20555;-74
2021/03/15 01:31:00;;;;;;;0.35;0.35;;;4.60;99.90;;;;;;4428224;32;20069;-72
2021/03/15 01:33:26;;;;;;;1.10;0.75;;;4.60;99.90;;;;;;4428177;32;20062;-73
2021/03/15 01:35:51;;;;;;;0.40;0.40;;;4.60;99.90;;;;;;4428438;32;20396;-74
2021/03/15 01:38:17;;;;;;;1.55;0.77;;;4.70;99.90;;;;;;4429423;32;20188;-73
2021/03/15 01:40:43;;;;;;;0.30;0.30;;;4.60;99.90;;;;;;4430090;32;20085;-73
2021/03/15 01:43:09;;;;;;;0.30;0.30;;;4.60;99.90;;;;;;4430952;32;20460;-73
2021/03/15 01:45:35;;;;;;;0.60;0.60;;;4.60;99.90;;;;;;4431003;32;20120;-72
2021/03/15 01:48:02;;;;;;;0.47;0.47;;;4.60;99.90;;;;;;4431395;32;20061;-73
2021/03/15 01:50:28;;;;;;;0.50;0.50;;;4.60;99.90;;;;;;4431100;32;20515;-71
2021/03/15 01:52:55;;;;;;;0.40;0.40;;;4.60;99.90;;;;;;4430756;32;20057;-72
2021/03/15 01:55:21;;;;;;;0.40;0.40;;;4.60;99.90;;;;;;4431065;32;20372;-72
2021/03/15 01:57:48;;;;;;;0.40;0.40;;;4.60;99.90;;;;;;4429778;32;20086;-72
2021/03/15 02:00:15;;;;;;;0.35;0.35;;;4.60;99.90;;;;;;4430381;32;20082;-72
2021/03/15 02:02:48;;;;;;;0.40;0.40;;;4.60;99.90;;;;;;4430537;32;20160;-72
2021/03/15 02:05:14;;;;;;;1.17;0.85;;;4.60;99.90;;;;;;4430694;32;20166;-72
2021/03/15 02:07:39;;;;;;;0.30;0.30;;;4.70;99.90;;;;;;4430353;32;20500;-72
2021/03/15 02:10:05;;;;;;;0.88;0.70;;;4.80;99.90;;;;;;4429739;32;20065;-72
2021/03/15 02:12:58;;;;;;;1.33;1.05;;;4.80;99.90;;;;;;4431539;32;20065;-72
2021/03/15 02:15:45;;;;;;;0.47;0.47;;;4.70;99.90;;;;;;4429374;32;20454;-72
2021/03/15 02:18:21;;;;;;;0.55;0.55;;;4.80;99.90;;;;;;4430738;32;20511;-72
2021/03/15 02:21:27;;;;;;;0.30;0.30;;;4.80;99.90;;;;;;4435672;32;20470;-72
2021/03/15 02:23:57;;;;;;;0.30;0.30;;;4.80;99.90;;;;;;4425348;32;20064;-72
2021/03/15 02:26:47;;;;;;;0.32;0.32;;;4.80;99.90;;;;;;4445313;32;20073;-72
2021/03/15 02:29:52;;;;;;;0.30;0.30;;;4.80;99.90;;;;;;4434706;32;20060;-72
2021/03/15 02:32:46;;;;;;;0.30;0.30;;;4.70;99.90;;;;;;4425870;32;20461;-72
2021/03/15 02:35:17;;;;;;;0.30;0.30;;;4.70;99.90;;;;;;4434772;32;20073;-72
2021/03/15 02:37:49;;;;;;;0.37;0.37;;;4.70;99.90;;;;;;4445908;32;20168;-72
2021/03/15 02:40:36;;;;;;;0.30;0.30;;;4.70;99.90;;;;;;4445163;32;20112;-72
2021/03/15 02:43:06;;;;;;;0.30;0.30;;;4.80;99.90;;;;;;4433822;32;20494;-72
2021/03/15 02:45:34;;;;;;;0.30;0.30;;;4.70;99.90;;;;;;4446249;32;20085;-72
2021/03/15 02:48:03;;;;;;;0.37;0.37;;;4.70;99.90;;;;;;4445579;32;20066;-72
2021/03/15 02:50:30;;;;;;;0.30;0.30;;;4.60;99.90;;;;;;4445085;32;20062;-72
2021/03/15 02:52:57;;;;;;;0.30;0.30;;;4.60;99.90;;;;;;4446260;32;20452;-72
2021/03/15 02:55:27;;;;;;;0.30;0.30;;;4.70;99.90;;;;;;4446779;32;20065;-72
2021/03/15 02:57:55;;;;;;;0.52;0.52;;;4.80;99.90;;;;;;4444021;32;20065;-72
2021/03/15 03:00:23;;;;;;;0.47;0.47;;;4.80;99.90;;;;;;4445068;32;20564;-73
2021/03/15 03:02:50;;;;;;;0.43;0.43;;;4.80;99.90;;;;;;4445153;32;20090;-72
2021/03/15 03:05:17;;;;;;;0.40;0.40;;;4.70;99.90;;;;;;4446263;32;20068;-72
2021/03/15 03:07:46;;;;;;;0.30;0.30;;;4.70;99.90;;;;;;4445159;32;20512;-72
2021/03/15 03:10:16;;;;;;;0.30;0.30;;;4.60;99.90;;;;;;4432665;32;20519;-72
2021/03/15 03:12:43;;;;;;;2.83;1.12;;;4.60;99.90;;;;;;4429615;32;20097;-72
2021/03/15 03:15:12;;;;;;;0.40;0.40;;;4.60;99.90;;;;;;4429794;32;20443;-72
2021/03/15 03:17:39;;;;;;;0.30;0.30;;;4.60;99.90;;;;;;4429316;32;20124;-72
2021/03/15 03:20:11;;;;;;;0.30;0.30;;;4.60;99.90;;;;;;4429572;32;20479;-72
2021/03/15 03:22:39;;;;;;;0.50;0.50;;;4.50;99.90;;;;;;4430503;32;20077;-72
2021/03/15 03:25:08;;;;;;;0.30;0.30;;;4.40;99.90;;;;;;4429370;32;20073;-73
2021/03/15 03:27:36;;;;;;;1.17;0.93;;;4.50;99.90;;;;;;4428875;32;20120;-72
2021/03/15 03:30:03;;;;;;;0.30;0.30;;;4.50;99.90;;;;;;4429336;32;20113;-72
2021/03/15 03:32:29;;;;;;;0.30;0.30;;;4.40;99.90;;;;;;4428862;32;20125;-72
2021/03/15 03:34:55;;;;;;;0.30;0.30;;;4.40;99.90;;;;;;4429322;32;20073;-72
2021/03/15 03:37:21;;;;;;;0.47;0.47;;;4.40;99.90;;;;;;4429187;32;20062;-72
2021/03/15 03:39:47;;;;;;;0.55;0.55;;;4.40;99.90;;;;;;4430174;32;20237;-72
2021/03/15 03:42:12;;;;;;;0.68;0.47;;;4.30;99.90;;;;;;4429069;32;20066;-72
2021/03/15 03:44:38;;;;;;;0.62;0.62;;;4.30;99.90;;;;;;4429072;32;20069;-72
2021/03/15 03:47:03;;;;;;;4.32;1.48;;;4.30;99.90;;;;;;4430781;32;20120;-72
2021/03/15 03:49:29;;;;;;;0.47;0.47;;;4.30;99.90;;;;;;4429499;32;20082;-72
2021/03/15 03:52:00;;;;;;;0.50;0.50;;;4.20;99.90;;;;;;4428591;32;20134;-72
2021/03/15 03:54:35;;;;;;;0.40;0.40;;;4.30;99.90;;;;;;4430239;32;20085;-72
2021/03/15 03:57:08;;;;;;;1.02;0.70;;;4.30;99.90;;;;;;4428867;32;20076;-72
2021/03/15 03:59:39;;;;;;;1.23;1.00;;;4.30;99.90;;;;;;4428721;32;20112;-72
2021/03/15 04:02:07;;;;;;;2.28;1.02;;;4.20;99.90;;;;;;4430446;32;20089;-72
2021/03/15 04:04:40;;;;;;;0.50;0.50;;;4.20;99.90;;;;;;4429524;32;20065;-72
2021/03/15 04:07:08;;;;;;;0.50;0.50;;;4.20;99.90;;;;;;4429276;32;20086;-72
2021/03/15 04:09:35;;;;;;;0.30;0.30;;;4.10;99.90;;;;;;4428734;32;20061;-72
2021/03/15 04:12:08;;;;;;;0.30;0.30;;;4.10;99.90;;;;;;4428625;32;20116;-72
2021/03/15 04:14:40;;;;;;;0.40;0.40;;;4.10;99.90;;;;;;4430383;32;20519;-73
2021/03/15 04:17:10;;;;;;;4.47;0.98;;;4.00;99.90;;;;;;4429052;32;20412;-72
2021/03/15 04:19:39;;;;;;;0.32;0.32;;;4.00;99.90;;;;;;4429273;32;20490;-72
2021/03/15 04:22:08;;;;;;;4.10;0.93;;;4.00;99.90;;;;;;4442653;32;20128;-72
2021/03/15 04:24:36;;;;;;;0.40;0.40;;;4.00;99.90;;;;;;4445429;32;20375;-72
2021/03/15 04:27:04;;;;;;;0.30;0.30;;;4.00;99.90;;;;;;4445019;32;20073;-73
2021/03/15 04:29:32;;;;;;;0.32;0.32;;;4.00;99.90;;;;;;4443943;32;20153;-72
2021/03/15 04:31:58;;;;;;;0.40;0.40;;;3.90;99.90;;;;;;4443822;32;20429;-72
2021/03/15 04:34:25;;;;;;;2.17;1.02;;;4.00;99.90;;;;;;4444329;32;20061;-72
2021/03/15 04:36:51;;;;;;;0.50;0.50;;;4.00;99.90;;;;;;4444980;32;20073;-72
2021/03/15 04:39:17;;;;;;;0.40;0.40;;;4.00;99.90;;;;;;4443449;32;20064;-72
2021/03/15 04:41:43;;;;;;;0.40;0.40;;;4.10;99.90;;;;;;4444145;32;20462;-72
2021/03/15 04:44:11;;;;;;;0.30;0.30;;;4.20;99.90;;;;;;4445041;32;20119;-72
2021/03/15 04:46:37;;;;;;;0.40;0.40;;;4.20;99.90;;;;;;4444358;32;20096;-72
2021/03/15 04:49:07;;;;;;;0.40;0.40;;;4.20;99.90;;;;;;4444488;32;20116;-72
2021/03/15 04:51:35;;;;;;;0.50;0.50;;;4.10;99.90;;;;;;4445274;32;20065;-72
2021/03/15 04:54:01;;;;;;;1.20;0.93;;;4.00;99.90;;;;;;4444089;32;20082;-72
2021/03/15 04:56:28;;;;;;;7.32;1.10;;;4.00;99.90;;;;;;4444311;32;20065;-72
2021/03/15 04:58:55;;;;;;;0.30;0.30;;;4.00;99.90;;;;;;4443389;32;20069;-72
2021/03/15 05:01:27;;;;;;;1.90;0.77;;;4.00;99.90;;;;;;4444323;32;20065;-72
2021/03/15 05:03:53;;;;;;;0.30;0.30;;;4.00;99.90;;;;;;4444546;32;20132;-72
2021/03/15 05:06:19;;;;;;;0.35;0.35;;;4.00;99.90;;;;;;4443916;32;20077;-72
2021/03/15 05:08:47;;;;;;;0.47;0.47;;;4.10;99.90;;;;;;4441252;32;20069;-72
2021/03/15 05:11:13;;;;;;;0.30;0.30;;;4.10;99.90;;;;;;4428335;32;20526;-72
2021/03/15 05:13:40;;;;;;;0.50;0.50;;;4.00;99.90;;;;;;4427944;32;20112;-73
2021/03/15 05:16:07;;;;;;;0.30;0.30;;;4.00;99.90;;;;;;4429412;32;20061;-72
2021/03/15 05:18:34;;;;;;;0.65;0.65;;;3.90;99.90;;;;;;4430042;32;20089;-72
2021/03/15 05:21:00;;;;;;;1.27;1.17;;;3.90;99.90;;;;;;4428973;32;20114;-72
2021/03/15 05:23:27;;;;;;;0.50;0.50;;;3.90;99.90;;;;;;4428621;32;20123;-73
2021/03/15 05:25:54;;;;;;;0.73;0.73;;;3.90;99.90;;;;;;4428630;32;20068;-73
2021/03/15 05:28:21;;;;;;;0.55;0.55;;;3.90;99.90;;;;;;4427904;32;20384;-73
2021/03/15 05:30:50;;;;;;;0.30;0.30;;;3.90;99.90;;;;;;4428338;32;20081;-73
2021/03/15 05:33:18;;;;;;;0.50;0.50;;;3.80;99.90;;;;;;4428596;32;20397;-73
2021/03/15 05:35:45;;;;;;;0.57;0.57;;;3.80;99.90;;;;;;4428593;32;20069;-73
2021/03/15 05:38:11;;;;;;;0.40;0.40;;;3.80;99.90;;;;;;4429449;32;20065;-73
2021/03/15 05:40:41;;;;;;;0.40;0.40;;;3.90;99.90;;;;;;4428853;32;20465;-73
2021/03/15 05:43:14;;;;;;;4.78;2.35;;;3.90;99.90;;;;;;4428658;32;20062;-73
2021/03/15 05:46:08;;;;;;;0.95;0.70;;;3.80;99.90;;;;;;4428502;32;20522;-73
2021/03/15 05:48:48;;;;;;;0.57;0.57;;;3.80;99.90;;;;;;4427275;32;20069;-74
2021/03/15 05:51:40;;;;;;;0.50;0.50;;;3.90;99.90;;;;;;4427751;32;20089;-73
2021/03/15 05:54:26;;;;;;;0.55;0.55;;;3.90;99.90;;;;;;4427407;32;20503;-73
2021/03/15 05:57:03;;;;;;;0.85;0.70;;;3.90;99.90;;;;;;4427882;32;20081;-73
2021/03/15 05:59:57;;;;;;;0.32;0.32;;;3.90;99.90;;;;;;4428265;32;20161;-74
2021/03/15 06:02:49;;;;;;;0.50;0.50;;;4.00;99.90;;;;;;4413479;32;20096;-73
2021/03/15 06:05:24;;;;;;;0.40;0.40;;;4.10;99.90;;;;;;4410205;32;20077;-73
2021/03/15 06:08:00;;;;;;;0.40;0.40;;;4.10;99.90;;;;;;4405951;32;20070;-73
2021/03/15 06:10:57;;;;;;;0.40;0.40;;;4.10;99.90;;;;;;4423366;32;20069;-73
2021/03/15 06:13:24;;;;;;;1.08;0.62;;;4.10;99.90;;;;;;4414475;32;20056;-73
2021/03/15 06:15:51;;;;;;;0.40;0.40;;;4.10;99.90;;;;;;4411896;32;20066;-74
2021/03/15 06:18:17;;;;;;;0.50;0.50;;;4.10;99.90;;;;;;4413615;32;20117;-73
2021/03/15 06:20:45;;;;;;;0.50;0.50;;;4.10;99.90;;;;;;4420378;32;20413;-74
2021/03/15 06:23:15;;;;;;;0.62;0.62;;;4.20;99.90;;;;;;4427424;32;20053;-74
2021/03/15 06:25:41;;;;;;;0.40;0.40;;;4.30;99.90;;;;;;4426457;32;20079;-73
2021/03/15 06:28:07;;;;;;;0.50;0.50;;;4.30;99.90;;;;;;4426344;32;20349;-74
2021/03/15 06:30:33;;;;;;;0.68;0.68;;;4.30;99.90;;;;;;4417881;32;20618;-74
2021/03/15 06:33:00;;;;;;;0.88;0.60;;;4.30;99.90;;;;;;4427576;32;20085;-74
2021/03/15 06:35:28;;;;;;;3.97;1.55;;;4.30;99.90;;;;;;4426362;32;20574;-76
2021/03/15 06:37:55;;;;;;;0.30;0.30;;;4.30;99.90;;;;;;4427749;32;20137;-74
2021/03/15 06:40:22;;;;;;;16.90;1.70;;;4.40;99.90;;;;;;4429885;32;20081;-74
2021/03/15 06:42:50;;;;;;;0.32;0.32;;;4.50;99.90;;;;;;4428626;32;20116;-74
2021/03/15 06:45:19;;;;;;;0.40;0.40;;;4.50;99.90;;;;;;4423009;32;20066;-74
2021/03/15 06:47:45;;;;;;;0.30;0.30;;;4.40;99.90;;;;;;4425104;32;20129;-74
2021/03/15 06:50:12;;;;;;;0.50;0.50;;;4.50;99.90;;;;;;4420651;32;20587;-72
2021/03/15 06:52:57;;;;;;;0.40;0.40;;;4.40;99.90;;;;;;4422713;32;20111;-73
2021/03/15 06:55:24;;;;;;;0.40;0.40;;;4.30;99.90;;;;;;4423975;32;20089;-73
2021/03/15 06:57:51;;;;;;;0.35;0.35;;;4.30;99.90;;;;;;4421419;32;20137;-73
2021/03/15 07:00:22;;;;;;;1.90;1.20;;;4.40;99.90;;;;;;4429084;32;20119;-73
2021/03/15 07:02:56;;;;;;;1.85;1.05;;;4.50;99.90;;;;;;4424177;32;20132;-73
2021/03/15 07:05:22;;;;;;;1.20;1.10;;;4.30;99.90;;;;;;4419208;32;20073;-74
2021/03/15 07:07:52;;;;;;;0.50;0.50;;;4.30;99.90;;;;;;4428843;32;20213;-74
2021/03/15 07:10:21;;;;;;;0.70;0.70;;;4.40;99.90;;;;;;4429184;32;20436;-74
2021/03/15 07:12:47;;;;;;;2.00;0.60;;;4.50;99.90;;;;;;4422459;32;20089;-73
2021/03/15 07:15:13;;;;;;;0.43;0.43;;;4.70;99.90;;;;;;4422339;32;20061;-74
2021/03/15 07:17:39;;;;;;;0.50;0.50;;;4.80;99.90;;;;;;4428540;32;20140;-74
2021/03/15 07:20:06;;;;;;;1.17;0.80;;;4.80;99.90;;;;;;4436459;32;20170;-73
2021/03/15 07:22:32;;;;;;;0.43;0.43;;;4.90;99.90;;;;;;4424452;32;20133;-73
2021/03/15 07:25:05;;;;;;;0.40;0.40;;;5.00;99.90;;;;;;4427462;32;20069;-73
2021/03/15 07:27:31;;;;;;;3.20;1.40;;;5.00;99.90;;;;;;4428233;32;20077;-73
2021/03/15 07:29:57;;;;;;;0.40;0.40;;;5.00;99.90;;;;;;4429881;32;20070;-72
2021/03/15 07:32:39;;;;;;;0.95;0.90;;;5.00;99.90;;;;;;4425437;32;20061;-73
2021/03/15 07:35:20;;;;;;;0.50;0.50;;;5.10;99.90;;;;;;4422643;32;20396;-72
2021/03/15 07:37:45;;;;;;;0.50;0.50;;;5.10;99.90;;;;;;4429642;32;20132;-73
2021/03/15 07:40:12;;;;;;;0.47;0.47;;;5.10;99.90;;;;;;4428823;32;20081;-73
2021/03/15 07:42:57;;;;;;;1.95;0.73;;;5.20;99.90;;;;;;4427120;32;20522;-73
2021/03/15 07:45:44;;;;;;;0.65;0.65;;;5.20;99.90;;;;;;4428875;32;20130;-73
2021/03/15 07:48:13;;;;;;;0.70;0.70;;;5.20;99.90;;;;;;4417803;32;20083;-73
2021/03/15 07:50:39;;;;;;;0.50;0.50;;;5.20;99.90;;;;;;4424167;32;21237;-73
2021/03/15 07:53:06;;;;;;;0.40;0.40;;;5.20;99.90;;;;;;4428998;32;20077;-73
2021/03/15 07:55:34;;;;;;;1.80;1.20;;;5.10;99.90;;;;;;4444521;32;20506;-73
2021/03/15 07:57:59;;;;;;;0.40;0.40;;;5.10;99.90;;;;;;4419545;32;20528;-73
2021/03/15 08:00:25;;;;;;;8.50;0.75;;;5.10;99.90;;;;;;4427931;32;20153;-73
2021/03/15 08:02:51;;;;;;;0.70;0.70;;;5.20;99.90;;;;;;4428901;32;20373;-72
2021/03/15 08:05:16;;;;;;;4.05;2.05;;;5.30;99.90;;;;;;4429159;32;20458;-72
2021/03/15 08:07:42;;;;;;;1.90;1.30;;;5.30;99.90;;;;;;4418085;32;20062;-73
2021/03/15 08:10:08;;;;;;;1.05;0.80;;;5.50;99.90;;;;;;4433477;32;20140;-72
2021/03/15 08:12:35;;;;;;;0.40;0.40;;;5.50;99.90;;;;;;4426686;32;20487;-72
2021/03/15 08:15:07;;;;;;;0.45;0.45;;;5.70;99.90;;;;;;4429541;32;20072;-72
2021/03/15 08:17:36;;;;;;;0.70;0.70;;;5.80;99.90;;;;;;4428018;32;20270;-72
2021/03/15 08:20:04;;;;;;;0.45;0.45;;;5.70;99.90;;;;;;4429474;32;20069;-73
2021/03/15 08:22:33;;;;;;;0.40;0.40;;;5.70;99.90;;;;;;4438004;32;20077;-73
2021/03/15 08:24:59;;;;;;;1.85;0.60;;;5.60;99.90;;;;;;4432893;32;20085;-73
2021/03/15 08:27:28;;;;;;;0.50;0.50;;;5.60;99.90;;;;;;4421559;32;20068;-73
2021/03/15 08:29:59;;;;;;;0.50;0.50;;;5.60;99.90;;;;;;4428314;32;20065;-73
2021/03/15 08:32:27;;;;;;;0.40;0.40;;;5.50;99.90;;;;;;4426264;32;20185;-73
2021/03/15 08:34:53;;;;;;;0.40;0.40;;;5.60;99.90;;;;;;4431017;32;20069;-74
2021/03/15 08:37:58;;;;;;;0.40;0.40;;;5.50;99.90;;;;;;4425219;32;20097;-74
2021/03/15 08:40:43;;;;;;;0.85;0.85;;;5.70;99.90;;;;;;4408741;32;20065;-73
2021/03/15 08:43:25;;;;;;;0.98;0.47;;;5.80;99.90;;;;;;4425982;32;20148;-73
2021/03/15 08:45:56;;;;;;;0.90;0.88;;;5.80;99.90;;;;;;4422497;32;20138;-73
2021/03/15 08:48:42;;;;;;;0.50;0.50;;;5.80;99.90;;;;;;4424703;32;20081;-73
2021/03/15 08:51:13;;;;;;;0.43;0.43;;;5.80;99.90;;;;;;4410695;32;20432;-73
2021/03/15 08:53:41;;;;;;;0.50;0.50;;;5.90;99.90;;;;;;4426361;32;20503;-73
2021/03/15 08:56:19;;;;;;;0.60;0.60;;;6.00;99.90;;;;;;4423619;32;20068;-73
2021/03/15 08:58:47;;;;;;;1.77;1.25;;;5.90;99.90;;;;;;4423299;32;20413;-73
2021/03/15 09:01:17;;;;;;;0.40;0.40;;;5.80;99.90;;;;;;4428420;32;20069;-73
2021/03/15 09:03:55;;;;;;;4.32;0.73;;;5.80;99.90;;;;;;4426966;32;20090;-74
2021/03/15 09:06:41;;;;;;;0.35;0.35;;;5.90;99.90;;;;;;4426987;32;20089;-74
2021/03/15 09:09:28;;;;;;;0.62;0.52;;;6.00;99.90;;;;;;4417326;32;20428;-73
2021/03/15 09:11:56;;;;;;;0.60;0.60;;;5.90;99.90;;;;;;4426713;32;20151;-73
2021/03/15 09:14:30;;;;;;;0.37;0.37;;;5.90;99.90;;;;;;4426100;32;20081;-73
2021/03/15 09:17:17;;;;;;;0.77;0.70;;;6.00;99.90;;;;;;4427490;32;20120;-73
2021/03/15 09:19:44;;;;;;;0.30;0.30;;;6.10;99.90;;;;;;4416399;32;20065;-74
2021/03/15 09:22:31;;;;;;;0.30;0.30;;;6.00;99.90;;;;;;4415704;32;20110;-73
2021/03/15 09:24:59;;;;;;;0.40;0.40;;;6.10;99.90;;;;;;4406366;32;20511;-73
2021/03/15 09:27:31;;;;;;;0.30;0.30;;;6.20;99.90;;;;;;4427101;32;20132;-74
2021/03/15 09:30:03;;;;;;;0.55;0.55;;;6.30;99.90;;;;;;4412547;32;20511;-74
2021/03/15 09:32:33;;;;;;;0.45;0.45;;;6.30;99.90;;;;;;4412540;32;20065;-73
2021/03/15 09:35:02;;;;;;;0.40;0.40;;;6.40;99.90;;;;;;4414000;32;20409;-73
2021/03/15 09:37:28;;;;;;;1.27;1.17;;;6.40;99.90;;;;;;4412206;32;20073;-73
2021/03/15 09:39:55;;;;;;;0.20;0.20;;;6.50;99.90;;;;;;4410067;32;20094;-73
2021/03/15 09:42:21;;;;;;;0.30;0.30;;;6.60;99.90;;;;;;4413681;32;20127;-73
2021/03/15 09:44:46;;;;;;;0.70;0.40;;;6.60;99.90;;;;;;4418782;32;20180;-73
2021/03/15 09:47:21;;;;;;;0.50;0.50;;;6.50;99.90;;;;;;4420808;32;20090;-73
2021/03/15 09:49:47;;;;;;;2.00;1.30;;;6.50;99.90;;;;;;4409491;32;20136;-74
2021/03/15 09:52:22;;;;;;;0.30;0.30;;;6.60;99.90;;;;;;4411919;32;20065;-72
2021/03/15 09:54:51;;;;;;;0.52;0.52;;;6.80;99.90;;;;;;4410625;32;20062;-73
2021/03/15 09:57:17;;;;;;;0.40;0.40;;;7.10;99.90;;;;;;4408267;32;20069;-72
2021/03/15 09:59:44;;;;;;;0.62;0.62;;;7.40;99.90;;;;;;4413877;32;20079;-73
2021/03/15 10:02:09;;;;;;;0.32;0.32;;;7.80;99.90;;;;;;4414403;32;20085;-72
2021/03/15 10:04:37;;;;;;;0.50;0.50;;;7.90;99.90;;;;;;4414078;32;20199;-74
2021/03/15 10:07:06;;;;;;;0.50;0.50;;;7.80;99.90;;;;;;4415032;32;20077;-72
2021/03/15 10:09:33;;;;;;;3.03;1.40;;;7.90;99.90;;;;;;4414767;32;20137;-72
2021/03/15 10:12:00;;;;;;;0.50;0.50;;;7.80;99.90;;;;;;4414123;32;20070;-72
2021/03/15 10:14:26;;;;;;;0.50;0.50;;;7.70;99.90;;;;;;4411540;32;20357;-73
2021/03/15 10:16:54;;;;;;;0.50;0.50;;;7.80;99.90;;;;;;4412004;32;20120;-72
2021/03/15 10:19:21;;;;;;;0.40;0.40;;;7.70;99.90;;;;;;4421824;32;20057;-72
2021/03/15 10:21:47;;;;;;;0.30;0.30;;;7.60;99.90;;;;;;4426474;32;20081;-72
2021/03/15 10:24:12;;;;;;;0.55;0.55;;;7.80;99.90;;;;;;4423476;32;20408;-73
2021/03/15 10:26:38;;;;;;;0.90;0.68;;;7.70;99.90;;;;;;4423874;32;20389;-72
2021/03/15 10:29:04;;;;;;;0.40;0.40;;;7.90;99.90;;;;;;4429897;32;20069;-72
2021/03/15 10:31:29;;;;;;;0.32;0.32;;;7.90;99.90;;;;;;4429161;32;20073;-71
2021/03/15 10:33:58;;;;;;;0.40;0.40;;;7.90;99.90;;;;;;4437503;32;20061;-73
2021/03/15 10:36:27;;;;;;;0.35;0.35;;;7.80;99.90;;;;;;4430448;32;20510;-72
2021/03/15 10:38:54;;;;;;;1.12;0.52;;;8.00;99.90;;;;;;4431098;32;20120;-72
2021/03/15 10:41:20;;;;;;;0.40;0.40;;;8.20;99.90;;;;;;4433301;32;20069;-73
2021/03/15 10:43:50;;;;;;;0.50;0.50;;;8.30;99.90;;;;;;4426738;32;112059;-73
2021/03/15 10:46:21;;;;;;;0.40;0.40;;;8.30;99.90;;;;;;4428373;32;20068;-73
2021/03/15 10:48:47;;;;;;;0.20;0.20;;;8.20;99.90;;;;;;4433327;32;20058;-72
2021/03/15 10:51:13;;;;;;;0.37;0.37;;;8.10;99.90;;;;;;4421919;32;20058;-72
2021/03/15 10:53:54;;;;;;;0.40;0.40;;;8.00;99.90;;;;;;4423240;32;20073;-72
2021/03/15 10:56:21;;;;;;;0.30;0.30;;;8.00;99.90;;;;;;4425440;32;20062;-72
2021/03/15 10:58:48;;;;;;;0.40;0.40;;;8.10;99.90;;;;;;4434168;32;20071;-72
2021/03/15 11:01:20;;;;;;;0.30;0.30;;;8.00;99.90;;;;;;4435644;32;20100;-72
2021/03/15 11:03:46;;;;;;;0.30;0.30;;;7.90;99.90;;;;;;4427917;32;20793;-72
2021/03/15 11:06:15;;;;;;;0.30;0.30;;;7.80;99.90;;;;;;4430840;32;20077;-72
2021/03/15 11:08:51;;;;;;;0.40;0.40;;;7.90;99.90;;;;;;4441147;32;20436;-72
2021/03/15 11:11:19;;;;;;;0.43;0.43;;;7.70;99.90;;;;;;4425126;32;20065;-72
2021/03/15 11:13:46;;;;;;;0.30;0.30;;;7.60;99.90;;;;;;4426757;32;20426;-72
2021/03/15 11:16:21;;;;;;;1.00;0.88;;;7.50;99.90;;;;;;4427694;32;20069;-73
2021/03/15 11:18:49;;;;;;;0.40;0.40;;;7.50;99.90;;;;;;4427903;32;20082;-73
2021/03/15 11:21:14;;;;;;;0.30;0.30;;;7.90;99.90;;;;;;4431153;32;20085;-72
2021/03/15 11:23:43;;;;;;;0.30;0.30;;;8.30;99.90;;;;;;4417151;32;20061;-72
2021/03/15 11:26:13;;;;;;;0.50;0.50;;;8.60;99.90;;;;;;4423811;32;20062;-72
2021/03/15 11:28:41;;;;;;;0.40;0.40;;;9.00;99.90;;;;;;4428640;32;20082;-72
2021/03/15 11:31:14;;;;;;;0.30;0.30;;;8.70;99.90;;;;;;4427876;32;20081;-72
2021/03/15 11:33:39;;;;;;;0.52;0.52;;;8.40;99.90;;;;;;4427295;32;20066;-72
2021/03/15 11:36:19;;;;;;;0.32;0.32;;;8.40;99.90;;;;;;4429587;32;20069;-72
2021/03/15 11:38:55;;;;;;;0.30;0.30;;;8.40;99.90;;;;;;4429294;32;20120;-72
2021/03/15 11:41:23;;;;;;;0.30;0.30;;;8.20;99.90;;;;;;4444568;32;20119;-72
2021/03/15 11:43:49;;;;;;;0.30;0.30;;;8.10;99.90;;;;;;4444158;32;20560;-72
2021/03/15 11:46:15;;;;;;;1.25;0.57;;;8.30;99.90;;;;;;4439983;32;20077;-72
2021/03/15 11:48:41;;;;;;;0.35;0.35;;;8.70;99.90;;;;;;4427939;32;20057;-73
2021/03/15 11:51:09;;;;;;;0.40;0.40;;;9.50;99.90;;;;;;4442773;32;20458;-72
2021/03/15 11:53:35;;;;;;;0.37;0.37;;;9.90;99.90;;;;;;4432559;32;20061;-72
2021/03/15 11:56:00;;;;;;;0.40;0.40;;;9.60;99.90;;;;;;4426384;32;20089;-72
2021/03/15 11:58:26;;;;;;;0.40;0.40;;;9.30;99.90;;;;;;4421113;32;20117;-73
2021/03/15 12:00:51;;;;;;;0.30;0.30;;;9.00;99.90;;;;;;4419936;32;20088;-72
2021/03/15 12:03:17;;;;;;;0.35;0.35;;;9.00;99.90;;;;;;4439942;32;20078;-72
2021/03/15 12:05:42;;;;;;;0.85;0.40;;;9.20;99.90;;;;;;4430452;32;20073;-72
2021/03/15 12:08:08;;;;;;;0.40;0.40;;;9.90;99.90;;;;;;4427776;32;20069;-72
2021/03/15 12:10:33;;;;;;;0.30;0.30;;;10.40;99.90;;;;;;4429480;32;20518;-72
2021/03/15 12:12:59;;;;;;;0.30;0.30;;;10.40;99.90;;;;;;4432563;32;20061;-72
2021/03/15 12:15:25;;;;;;;0.30;0.30;;;10.30;99.90;;;;;;4439287;32;20077;-72
2021/03/15 12:17:50;;;;;;;0.35;0.35;;;10.50;99.90;;;;;;4432785;32;20050;-71
2021/03/15 12:20:16;;;;;;;0.57;0.57;;;10.80;99.90;;;;;;4425824;32;20494;-73
2021/03/15 12:22:42;;;;;;;0.40;0.40;;;10.80;99.90;;;;;;4428289;32;20054;-73
2021/03/15 12:25:09;;;;;;;0.40;0.40;;;10.40;99.90;;;;;;4418925;32;20102;-71
2021/03/15 12:27:34;;;;;;;0.43;0.43;;;10.00;99.90;;;;;;4418559;32;20062;-71
2021/03/15 12:30:01;;;;;;;0.28;0.28;;;9.70;99.90;;;;;;4424033;32;20417;-71
2021/03/15 12:32:26;;;;;;;0.57;0.57;;;9.20;99.90;;;;;;4427654;32;20086;-71
2021/03/15 12:34:52;;;;;;;0.40;0.40;;;9.00;99.90;;;;;;4428259;32;20058;-71
2021/03/15 12:37:18;;;;;;;1.23;0.95;;;8.90;99.90;;;;;;4427080;32;20078;-72
2021/03/15 12:39:43;;;;;;;0.32;0.32;;;8.70;99.90;;;;;;4427100;32;20561;-72
2021/03/15 12:42:09;;;;;;;0.30;0.30;;;8.70;99.90;;;;;;4427260;32;20077;-72
2021/03/15 12:44:35;;;;;;;0.30;0.30;;;8.50;99.90;;;;;;4428225;32;20135;-72
2021/03/15 12:47:00;;;;;;;0.40;0.40;;;8.40;99.90;;;;;;4428504;32;20065;-72
2021/03/15 12:49:26;;;;;;;0.40;0.40;;;8.40;99.90;;;;;;4429101;32;20495;-72
2021/03/15 12:51:51;;;;;;;0.40;0.40;;;8.50;99.90;;;;;;4427481;32;20073;-72
2021/03/15 12:54:17;;;;;;;0.90;0.40;;;8.30;99.90;;;;;;4429602;32;20433;-72
2021/03/15 12:56:42;;;;;;;0.35;0.35;;;8.20;99.90;;;;;;4429356;32;20061;-71
2021/03/15 12:59:08;;;;;;;0.32;0.32;;;8.30;99.90;;;;;;4428153;32;20077;-72
2021/03/15 13:01:34;;;;;;;0.30;0.30;;;8.20;99.90;;;;;;4428091;32;20081;-72
2021/03/15 13:03:59;;;;;;;1.65;0.60;;;8.30;99.90;;;;;;4428874;32;20078;-72
2021/03/15 13:06:25;;;;;;;0.40;0.40;;;8.50;99.90;;;;;;4420837;32;20499;-72
2021/03/15 13:08:51;;;;;;;0.30;0.30;;;8.50;99.90;;;;;;4423492;32;20447;-72